Time;durP1;ratioP1;P1;durP2;ratioP2;P2;SDS_P1;SDS_P2;PMS_P1;PMS_P2;Temp;Humidity;BMP_temperature;BMP_pressure;BME280_temperature;BME280_humidity;BME280_pressure;Samples;Min_cycle;Max_cycle;Signal;HPM_P1;HPM_P2
2022/05/01 00:01:17;;;;;;;8.05;6.05;;;7.00;99.90;;;;;;5116173;28;20188;-58
2022/05/01 00:03:43;;;;;;;6.40;5.10;;;7.00;99.90;;;;;;5115596;28;20172;-58
2022/05/01 00:06:10;;;;;;;6.05;4.40;;;6.90;99.90;;;;;;5115861;28;20207;-58
2022/05/01 00:08:41;;;;;;;6.50;5.05;;;6.70;99.90;;;;;;5115638;28;20173;-58
2022/05/01 00:11:10;;;;;;;6.60;5.85;;;6.60;99.90;;;;;;5114185;28;20201;-58
2022/05/01 00:13:36;;;;;;;6.63;5.50;;;6.40;99.90;;;;;;5114403;28;20192;-58
2022/05/01 00:16:02;;;;;;;6.88;5.82;;;6.40;99.90;;;;;;5115949;28;20181;-58
2022/05/01 00:18:28;;;;;;;7.70;5.32;;;6.40;99.90;;;;;;5115552;28;20177;-58
2022/05/01 00:20:54;;;;;;;6.75;5.97;;;6.30;99.90;;;;;;5115427;28;20184;-58
2022/05/01 00:23:20;;;;;;;7.05;6.05;;;6.50;99.90;;;;;;5114222;28;20567;-58
2022/05/01 00:25:46;;;;;;;7.63;6.68;;;6.60;99.90;;;;;;5115271;28;20177;-58
2022/05/01 00:28:13;;;;;;;9.13;6.45;;;6.60;99.90;;;;;;5115164;28;20623;-58
2022/05/01 00:30:40;;;;;;;8.85;6.75;;;6.60;99.90;;;;;;5114181;28;20208;-58
2022/05/01 00:38:35;;;;;;;8.65;6.07;;;6.80;99.90;;;;;;5115396;28;20192;-58
2022/05/01 00:41:02;;;;;;;9.38;5.57;;;6.80;99.90;;;;;;5114946;28;20177;-58
2022/05/01 00:43:27;;;;;;;7.95;6.38;;;6.80;99.90;;;;;;5114856;28;20176;-58
2022/05/01 00:45:53;;;;;;;7.38;6.20;;;6.70;99.90;;;;;;5113817;28;20168;-58
2022/05/01 00:48:19;;;;;;;9.32;7.22;;;6.70;99.90;;;;;;5113628;28;20208;-58
2022/05/01 00:50:45;;;;;;;7.90;6.63;;;6.70;99.90;;;;;;5113462;28;20621;-58
2022/05/01 00:53:11;;;;;;;7.95;6.85;;;6.70;99.90;;;;;;5113705;28;20580;-58
2022/05/01 00:55:37;;;;;;;9.98;7.28;;;6.70;99.90;;;;;;5114677;28;20169;-58
2022/05/01 00:58:07;;;;;;;8.45;6.55;;;6.60;99.90;;;;;;5114851;28;20179;-58
2022/05/01 01:00:34;;;;;;;7.88;5.78;;;6.60;99.90;;;;;;5114730;28;20173;-59
2022/05/01 01:03:01;;;;;;;7.53;5.75;;;6.50;99.90;;;;;;5114473;28;20242;-58
2022/05/01 01:05:27;;;;;;;8.55;5.90;;;6.50;99.90;;;;;;5114074;28;20551;-58
2022/05/01 01:07:52;;;;;;;8.00;5.50;;;6.40;99.90;;;;;;5113499;28;20173;-58
2022/05/01 01:10:19;;;;;;;8.88;7.10;;;6.40;99.90;;;;;;5113330;28;20561;-58
2022/05/01 01:12:54;;;;;;;8.70;7.22;;;6.50;99.90;;;;;;5114449;28;20177;-58
2022/05/01 01:15:25;;;;;;;8.43;7.18;;;6.40;99.90;;;;;;5113151;28;20184;-58
2022/05/01 01:17:54;;;;;;;8.38;7.18;;;6.40;99.90;;;;;;5114382;28;20183;-58
2022/05/01 01:20:22;;;;;;;9.48;5.60;;;6.50;99.90;;;;;;5114463;28;20646;-58
2022/05/01 01:22:56;;;;;;;10.07;6.95;;;6.50;99.90;;;;;;5113206;28;20181;-58
2022/05/01 01:25:29;;;;;;;9.15;6.07;;;6.40;99.90;;;;;;5114173;28;20534;-58
2022/05/01 01:27:59;;;;;;;8.93;7.43;;;6.40;99.90;;;;;;5114250;28;20534;-58
2022/05/01 01:33:10;;;;;;;9.43;6.78;;;6.50;99.90;;;;;;5112426;28;20237;-58
2022/05/01 01:35:38;;;;;;;8.68;7.00;;;6.50;99.90;;;;;;5112491;28;20181;-58
2022/05/01 01:38:04;;;;;;;9.43;7.78;;;6.50;99.90;;;;;;5114089;28;20183;-58
2022/05/01 01:40:39;;;;;;;8.75;7.30;;;6.50;99.90;;;;;;5113950;28;20262;-58
2022/05/01 01:43:06;;;;;;;8.60;6.40;;;6.40;99.90;;;;;;5113908;28;20164;-58
2022/05/01 01:45:32;;;;;;;9.57;5.95;;;6.30;99.90;;;;;;5114147;28;20177;-58
2022/05/01 01:48:16;;;;;;;9.65;6.10;;;6.30;99.90;;;;;;5114011;28;20246;-58
2022/05/01 01:50:42;;;;;;;10.65;6.63;;;6.20;99.90;;;;;;5113892;28;20193;-58
2022/05/01 01:53:10;;;;;;;10.93;6.63;;;6.10;99.90;;;;;;5113702;28;20188;-58
2022/05/01 01:55:36;;;;;;;9.70;6.28;;;6.00;99.90;;;;;;5113698;28;20572;-58
2022/05/01 01:58:03;;;;;;;9.88;7.75;;;6.10;99.90;;;;;;5112612;28;20172;-58
2022/05/01 02:00:29;;;;;;;9.82;6.80;;;6.10;99.90;;;;;;5113839;28;20234;-58
2022/05/01 02:02:59;;;;;;;10.13;7.40;;;6.00;99.90;;;;;;5112442;28;20577;-58
2022/05/01 02:05:26;;;;;;;9.48;6.43;;;5.80;99.90;;;;;;5113905;28;20191;-58
2022/05/01 02:07:52;;;;;;;11.98;7.45;;;5.80;99.90;;;;;;5113615;28;20534;-58
2022/05/01 02:10:18;;;;;;;10.27;8.07;;;5.90;99.90;;;;;;5112548;28;20257;-58
2022/05/01 02:12:44;;;;;;;9.48;7.80;;;5.90;99.90;;;;;;5113647;28;20530;-58
2022/05/01 02:15:10;;;;;;;10.20;6.70;;;5.90;99.90;;;;;;5112359;28;20259;-58
2022/05/01 02:17:38;;;;;;;9.80;8.25;;;6.00;99.90;;;;;;5115493;28;20268;-58
2022/05/01 02:20:05;;;;;;;8.70;6.05;;;5.90;99.90;;;;;;5117850;28;20177;-58
2022/05/01 02:22:30;;;;;;;10.57;8.10;;;6.00;99.90;;;;;;5117587;28;20173;-58
2022/05/01 02:24:56;;;;;;;9.25;7.63;;;5.80;99.90;;;;;;5117823;28;20183;-58
2022/05/01 02:27:21;;;;;;;10.95;7.50;;;5.80;99.90;;;;;;5117832;28;20169;-58
2022/05/01 02:29:47;;;;;;;9.82;8.13;;;5.90;99.90;;;;;;5117727;28;20208;-58
2022/05/01 02:32:13;;;;;;;9.23;7.05;;;5.70;99.90;;;;;;5117504;28;20177;-58
2022/05/01 02:34:40;;;;;;;9.90;6.30;;;5.60;99.90;;;;;;5117762;28;20195;-58
2022/05/01 02:37:06;;;;;;;9.88;7.13;;;5.60;99.90;;;;;;5117326;28;20173;-58
2022/05/01 02:39:33;;;;;;;10.38;6.63;;;5.60;99.90;;;;;;5117385;28;20195;-58
2022/05/01 02:41:59;;;;;;;8.98;6.88;;;5.50;99.90;;;;;;5117502;28;20181;-58
2022/05/01 02:44:24;;;;;;;12.73;8.27;;;5.60;99.90;;;;;;5117485;28;20168;-58
2022/05/01 02:46:50;;;;;;;11.15;6.93;;;5.60;99.90;;;;;;5116216;28;20568;-58
2022/05/01 02:49:16;;;;;;;12.18;8.70;;;5.60;99.90;;;;;;5115819;28;20204;-58
2022/05/01 02:51:42;;;;;;;11.95;8.50;;;5.60;99.90;;;;;;5115973;28;20181;-58
2022/05/01 02:54:08;;;;;;;11.63;8.70;;;5.60;99.90;;;;;;5117345;28;20169;-58
2022/05/01 02:56:34;;;;;;;10.05;7.07;;;5.60;99.90;;;;;;5117211;28;20176;-59
2022/05/01 02:59:00;;;;;;;12.13;7.00;;;5.50;99.90;;;;;;5115958;28;20172;-58
2022/05/01 03:01:27;;;;;;;11.48;6.95;;;5.50;99.90;;;;;;5117068;28;20212;-58
2022/05/01 03:03:53;;;;;;;11.13;7.95;;;5.50;99.90;;;;;;5116907;28;20186;-58
2022/05/01 03:06:19;;;;;;;10.07;6.93;;;5.50;99.90;;;;;;5116821;28;20188;-58
2022/05/01 03:08:44;;;;;;;10.57;8.50;;;5.50;99.90;;;;;;5115537;28;20177;-58
2022/05/01 03:11:10;;;;;;;11.00;8.80;;;5.40;99.90;;;;;;5115440;28;20201;-58
2022/05/01 03:13:36;;;;;;;10.65;7.57;;;5.30;99.90;;;;;;5116821;28;20174;-58
2022/05/01 03:16:02;;;;;;;11.27;7.65;;;5.20;99.90;;;;;;5116806;28;20169;-58
2022/05/01 03:23:56;;;;;;;9.70;7.03;;;5.20;99.90;;;;;;5115597;28;20558;-58
2022/05/01 03:26:22;;;;;;;9.85;7.00;;;5.20;99.90;;;;;;5115439;28;20176;-58
2022/05/01 03:28:48;;;;;;;12.60;9.47;;;5.30;99.90;;;;;;5097579;28;20263;-58
2022/05/01 03:31:15;;;;;;;13.00;8.20;;;5.40;99.90;;;;;;5115133;28;20215;-58
2022/05/01 03:33:42;;;;;;;11.70;6.75;;;5.30;99.90;;;;;;5116479;28;20181;-58
2022/05/01 03:36:09;;;;;;;13.30;7.70;;;5.20;99.90;;;;;;5116484;28;20183;-58
2022/05/01 03:38:39;;;;;;;10.73;7.17;;;5.20;99.90;;;;;;5116337;28;20210;-58
2022/05/01 03:41:09;;;;;;;9.70;6.27;;;5.30;99.90;;;;;;5116258;28;20183;-58
2022/05/01 03:43:36;;;;;;;9.25;6.63;;;5.40;99.90;;;;;;5114789;28;20187;-58
2022/05/01 03:46:06;;;;;;;10.80;7.35;;;5.30;99.90;;;;;;5116389;28;20173;-58
2022/05/01 03:48:32;;;;;;;11.15;7.10;;;5.20;99.90;;;;;;5116194;28;20180;-58
2022/05/01 03:50:59;;;;;;;10.27;7.22;;;5.20;99.90;;;;;;5116073;28;20249;-58
2022/05/01 03:53:25;;;;;;;10.10;6.57;;;5.10;99.90;;;;;;5116094;28;20177;-58
2022/05/01 03:55:52;;;;;;;10.73;6.53;;;5.10;99.90;;;;;;5114691;28;20222;-58
2022/05/01 03:58:18;;;;;;;11.57;8.25;;;5.20;99.90;;;;;;5114621;28;20538;-58
2022/05/01 04:00:44;;;;;;;10.23;8.65;;;5.20;99.90;;;;;;5115057;28;20654;-58
2022/05/01 04:03:14;;;;;;;11.45;8.05;;;5.20;99.90;;;;;;5115869;28;20570;-58
2022/05/01 04:05:40;;;;;;;9.93;6.70;;;5.10;99.90;;;;;;5115755;28;20607;-58
2022/05/01 04:08:08;;;;;;;11.63;9.47;;;5.10;99.90;;;;;;5115688;28;20187;-58
2022/05/01 04:10:36;;;;;;;12.13;8.10;;;5.10;99.90;;;;;;5114324;28;20302;-58
2022/05/01 04:13:01;;;;;;;11.25;7.25;;;5.20;99.90;;;;;;5115782;28;20204;-58
2022/05/01 04:15:27;;;;;;;12.25;7.45;;;5.10;99.90;;;;;;5115543;28;20580;-58
2022/05/01 04:17:53;;;;;;;12.40;7.67;;;5.10;99.90;;;;;;5115605;28;20203;-58
2022/05/01 04:20:19;;;;;;;11.02;8.57;;;5.10;99.90;;;;;;5115456;28;20245;-58
2022/05/01 04:22:46;;;;;;;12.23;7.88;;;5.10;99.90;;;;;;5115421;28;20649;-58
2022/05/01 04:25:18;;;;;;;11.75;7.80;;;5.10;99.90;;;;;;5115305;28;20622;-58
2022/05/01 04:27:49;;;;;;;12.15;9.35;;;5.20;99.90;;;;;;5114179;28;20263;-58
2022/05/01 04:30:16;;;;;;;12.60;8.63;;;5.20;99.90;;;;;;5115255;28;20205;-58
2022/05/01 04:32:59;;;;;;;10.30;7.70;;;5.20;99.90;;;;;;5115335;28;20199;-58
2022/05/01 04:35:28;;;;;;;12.07;7.17;;;5.10;99.90;;;;;;5115292;28;20259;-58
2022/05/01 04:38:00;;;;;;;13.18;8.23;;;5.20;99.90;;;;;;5115026;28;20191;-58
2022/05/01 04:40:28;;;;;;;13.50;8.63;;;5.30;99.90;;;;;;5114285;28;20648;-58
2022/05/01 04:43:09;;;;;;;13.00;10.00;;;5.30;99.90;;;;;;5115155;28;20176;-58
2022/05/01 04:45:37;;;;;;;12.63;7.90;;;5.30;99.90;;;;;;5115019;28;20648;-58
2022/05/01 04:48:04;;;;;;;11.85;7.60;;;5.40;99.90;;;;;;5114904;28;20712;-58
2022/05/01 04:50:29;;;;;;;13.88;8.82;;;5.50;99.90;;;;;;5114555;28;20680;-58
2022/05/01 04:52:56;;;;;;;11.55;8.20;;;5.60;99.90;;;;;;5114754;28;20180;-58
2022/05/01 04:55:22;;;;;;;12.80;9.43;;;5.50;99.90;;;;;;5113664;28;20236;-58
2022/05/01 04:57:49;;;;;;;13.05;10.38;;;5.50;99.90;;;;;;5114814;28;20233;-58
2022/05/01 05:00:15;;;;;;;13.95;8.38;;;5.60;99.90;;;;;;5114766;28;20267;-58
2022/05/01 05:02:42;;;;;;;13.75;10.35;;;5.70;99.90;;;;;;5114702;28;20496;-58
2022/05/01 05:05:10;;;;;;;10.05;7.50;;;5.80;99.90;;;;;;5114381;28;20554;-58
2022/05/01 05:07:37;;;;;;;15.18;10.48;;;5.90;99.90;;;;;;5114782;28;20169;-58
2022/05/01 05:10:04;;;;;;;12.13;9.95;;;5.90;99.90;;;;;;5114596;28;20201;-58
2022/05/01 05:12:31;;;;;;;13.70;10.70;;;6.00;99.90;;;;;;5114379;28;20187;-58
2022/05/01 05:14:59;;;;;;;14.70;8.75;;;6.00;99.90;;;;;;5114423;28;20586;-58
2022/05/01 05:17:25;;;;;;;13.60;10.35;;;6.00;99.90;;;;;;5114275;28;20218;-58
2022/05/01 05:19:51;;;;;;;16.35;10.95;;;6.20;99.90;;;;;;5113117;28;20184;-58
2022/05/01 05:22:17;;;;;;;14.05;9.32;;;6.30;99.90;;;;;;5113246;28;20174;-58
2022/05/01 05:24:43;;;;;;;13.65;9.23;;;6.40;99.90;;;;;;5114355;28;20177;-58
2022/05/01 05:27:09;;;;;;;14.00;10.70;;;6.30;99.90;;;;;;5114266;28;20181;-58
2022/05/01 05:29:35;;;;;;;12.45;8.43;;;6.40;99.90;;;;;;5112914;28;20277;-58
2022/05/01 05:32:00;;;;;;;12.32;9.05;;;6.60;99.90;;;;;;5112848;28;20263;-58
2022/05/01 05:34:27;;;;;;;16.52;12.40;;;6.90;99.90;;;;;;5114532;28;20181;-57
2022/05/01 05:36:52;;;;;;;16.88;10.90;;;7.00;99.90;;;;;;5112986;28;20200;-58
2022/05/01 05:39:18;;;;;;;14.57;10.07;;;7.20;99.90;;;;;;5112848;28;20635;-58
2022/05/01 05:41:44;;;;;;;18.60;11.93;;;7.30;99.90;;;;;;5114041;28;20177;-58
2022/05/01 05:44:10;;;;;;;15.00;11.45;;;7.50;99.90;;;;;;5112883;28;20576;-58
2022/05/01 05:46:36;;;;;;;15.77;9.55;;;7.60;99.90;;;;;;5112661;28;20177;-58
2022/05/01 05:49:01;;;;;;;15.60;11.70;;;7.70;99.90;;;;;;5113839;28;20648;-58
2022/05/01 05:51:27;;;;;;;17.75;12.18;;;7.80;99.90;;;;;;5113846;28;20661;-58
2022/05/01 05:53:53;;;;;;;19.67;13.20;;;8.00;99.90;;;;;;5113915;28;20262;-58
2022/05/01 05:56:21;;;;;;;18.48;12.68;;;8.10;99.90;;;;;;5113648;28;20174;-58
2022/05/01 05:58:47;;;;;;;16.40;11.90;;;8.30;99.90;;;;;;5112451;28;20169;-58
2022/05/01 06:01:13;;;;;;;16.92;11.40;;;8.30;99.90;;;;;;5095311;28;20230;-58
2022/05/01 06:03:39;;;;;;;17.42;12.07;;;8.40;99.90;;;;;;5112128;28;20618;-58
2022/05/01 06:06:05;;;;;;;17.17;12.73;;;8.50;99.90;;;;;;5112012;28;20181;-58
2022/05/01 06:08:31;;;;;;;15.45;11.95;;;8.70;99.90;;;;;;5111065;28;20231;-58
2022/05/01 06:10:57;;;;;;;16.65;12.38;;;9.10;99.90;;;;;;5112368;28;20213;-58
2022/05/01 06:13:23;;;;;;;16.35;12.55;;;9.50;99.90;;;;;;5112292;28;20234;-58
2022/05/01 06:15:48;;;;;;;15.93;11.73;;;9.70;99.90;;;;;;5113123;28;20555;-58
2022/05/01 06:18:14;;;;;;;14.82;11.43;;;9.90;99.90;;;;;;5113773;28;20179;-58
2022/05/01 06:20:41;;;;;;;15.25;10.63;;;10.10;99.90;;;;;;5113377;28;20185;-58
2022/05/01 06:23:07;;;;;;;16.65;11.55;;;10.20;99.90;;;;;;5112257;28;20185;-58
2022/05/01 06:25:35;;;;;;;15.27;10.30;;;10.30;99.90;;;;;;5111511;28;20222;-58
2022/05/01 06:28:01;;;;;;;12.60;9.70;;;10.30;99.90;;;;;;5113212;28;20623;-58
2022/05/01 06:30:26;;;;;;;13.43;10.27;;;10.30;99.90;;;;;;5112998;28;20202;-58
2022/05/01 06:32:52;;;;;;;14.75;10.18;;;10.20;99.90;;;;;;5113397;28;20212;-58
2022/05/01 06:35:18;;;;;;;13.98;10.40;;;10.30;99.90;;;;;;5111872;28;20204;-58
2022/05/01 06:37:45;;;;;;;12.68;9.18;;;10.20;99.90;;;;;;5113311;28;20173;-58
2022/05/01 06:40:10;;;;;;;15.07;10.25;;;10.40;99.90;;;;;;5112055;28;20185;-58
2022/05/01 06:42:37;;;;;;;13.68;9.82;;;10.50;99.90;;;;;;5113111;28;20530;-58
2022/05/01 06:45:04;;;;;;;14.73;11.00;;;10.60;99.90;;;;;;5111767;28;20176;-58
2022/05/01 06:47:30;;;;;;;14.57;10.07;;;10.60;99.90;;;;;;5095024;28;20694;-58
2022/05/01 06:49:56;;;;;;;13.88;10.40;;;10.70;99.90;;;;;;5113192;28;20284;-58
2022/05/01 06:52:23;;;;;;;13.63;9.77;;;10.60;99.90;;;;;;5113270;28;20303;-58
2022/05/01 06:54:56;;;;;;;12.20;9.68;;;10.40;99.90;;;;;;5112920;28;20183;-58
2022/05/01 06:57:22;;;;;;;14.40;9.68;;;10.40;99.90;;;;;;5112845;28;20176;-58
2022/05/01 06:59:48;;;;;;;15.20;10.35;;;10.40;99.90;;;;;;5113111;28;20191;-58
2022/05/01 07:02:14;;;;;;;13.75;9.95;;;10.40;99.90;;;;;;5112798;28;20177;-58
2022/05/01 07:04:40;;;;;;;14.80;10.52;;;10.40;99.90;;;;;;5116030;28;20230;-58
2022/05/01 07:07:05;;;;;;;13.63;10.18;;;10.30;99.90;;;;;;5116709;28;20203;-58
2022/05/01 07:09:32;;;;;;;14.60;10.35;;;10.40;99.90;;;;;;5115623;28;20203;-58
2022/05/01 07:11:57;;;;;;;13.23;9.90;;;10.40;99.90;;;;;;5116414;28;20529;-58
2022/05/01 07:14:23;;;;;;;15.90;10.43;;;10.50;99.90;;;;;;5116512;28;20173;-58
2022/05/01 07:16:49;;;;;;;13.15;9.80;;;10.70;99.90;;;;;;5116880;28;20657;-58
2022/05/01 07:19:15;;;;;;;14.27;10.63;;;10.80;99.90;;;;;;5115840;28;20173;-58
2022/05/01 07:21:41;;;;;;;13.30;9.80;;;10.90;99.90;;;;;;5116601;28;20181;-58
2022/05/01 07:24:07;;;;;;;12.82;9.18;;;11.00;99.90;;;;;;5116543;28;20173;-58
2022/05/01 07:26:36;;;;;;;13.65;10.00;;;10.90;99.90;;;;;;5116676;28;20283;-58
2022/05/01 07:29:03;;;;;;;12.57;9.45;;;11.00;99.90;;;;;;5116495;28;20646;-58
2022/05/01 07:31:29;;;;;;;14.60;10.07;;;11.00;99.90;;;;;;5115183;28;20705;-58
2022/05/01 07:33:56;;;;;;;13.63;10.35;;;11.20;99.90;;;;;;5116378;28;20253;-58
2022/05/01 07:36:22;;;;;;;13.70;10.00;;;11.40;99.90;;;;;;5115084;28;20177;-58
2022/05/01 07:38:49;;;;;;;12.77;10.23;;;11.70;99.90;;;;;;5115016;28;20169;-58
2022/05/01 07:41:16;;;;;;;11.68;9.02;;;11.70;99.90;;;;;;5114892;28;20257;-58
2022/05/01 07:43:43;;;;;;;11.82;8.57;;;11.80;99.90;;;;;;5116273;28;20182;-58
2022/05/01 07:46:09;;;;;;;11.65;8.15;;;11.90;99.90;;;;;;5116194;28;20272;-58
2022/05/01 07:48:35;;;;;;;11.18;8.45;;;12.00;99.90;;;;;;5116110;28;20248;-58
2022/05/01 07:51:01;;;;;;;15.52;8.40;;;11.80;99.90;;;;;;5116021;28;20205;-58
2022/05/01 07:53:27;;;;;;;11.00;7.85;;;11.80;99.90;;;;;;5115971;28;20665;-58
2022/05/01 07:55:56;;;;;;;10.32;7.57;;;11.80;99.90;;;;;;5115940;28;20568;-58
2022/05/01 07:58:22;;;;;;;11.88;7.80;;;12.10;99.90;;;;;;5115619;28;20598;-58
2022/05/01 08:00:48;;;;;;;11.80;8.48;;;12.30;99.90;;;;;;5094741;28;20182;-58
2022/05/01 08:05:58;;;;;;;11.90;8.93;;;12.40;99.90;;;;;;5095389;28;20658;-58
2022/05/01 08:08:33;;;;;;;11.23;7.65;;;12.50;99.90;;;;;;5095252;28;20170;-58
2022/05/01 08:11:01;;;;;;;12.63;8.95;;;12.70;99.90;;;;;;5095355;28;20250;-58
2022/05/01 08:13:27;;;;;;;10.35;7.13;;;12.90;99.90;;;;;;5111302;28;20180;-58
2022/05/01 08:15:53;;;;;;;10.57;7.38;;;13.00;99.90;;;;;;5095108;28;20174;-58
2022/05/01 08:21:05;;;;;;;11.43;7.78;;;12.80;99.90;;;;;;5095593;28;20581;-58
2022/05/01 08:23:31;;;;;;;9.70;7.45;;;13.10;99.90;;;;;;5095040;28;20201;-58
2022/05/01 08:26:03;;;;;;;8.15;6.80;;;13.60;99.90;;;;;;5095124;28;20178;-58
2022/05/01 08:28:30;;;;;;;10.05;5.90;;;13.70;99.90;;;;;;5095111;28;20269;-58
2022/05/01 08:30:56;;;;;;;9.05;6.05;;;13.80;99.90;;;;;;5102406;28;20673;-58
2022/05/01 08:33:22;;;;;;;8.02;5.88;;;14.00;99.90;;;;;;5113825;28;20268;-58
2022/05/01 08:35:47;;;;;;;9.27;6.70;;;13.80;99.90;;;;;;5114982;28;20216;-58
2022/05/01 08:38:13;;;;;;;8.32;7.00;;;13.90;99.90;;;;;;5115451;28;20623;-58
2022/05/01 08:40:40;;;;;;;9.57;6.45;;;14.00;99.90;;;;;;5114915;28;20264;-58
2022/05/01 08:43:05;;;;;;;7.55;5.90;;;14.20;99.90;;;;;;5113751;28;20203;-58
2022/05/01 08:45:53;;;;;;;7.15;5.97;;;14.50;99.90;;;;;;5113766;28;20215;-58
2022/05/01 08:48:35;;;;;;;8.80;6.28;;;14.50;99.90;;;;;;5115015;28;20173;-58
2022/05/01 08:51:04;;;;;;;8.23;6.00;;;14.50;99.90;;;;;;5113526;28;20297;-58
2022/05/01 08:53:31;;;;;;;9.30;6.07;;;14.70;99.90;;;;;;5113843;28;20211;-58
2022/05/01 08:55:57;;;;;;;10.13;6.40;;;14.80;99.90;;;;;;5113518;28;20698;-58
2022/05/01 08:58:24;;;;;;;9.30;6.88;;;14.10;99.90;;;;;;5114264;28;20192;-58
2022/05/01 09:00:51;;;;;;;9.05;7.43;;;13.70;99.90;;;;;;5113583;28;20189;-58
2022/05/01 09:03:18;;;;;;;11.80;7.72;;;13.80;99.90;;;;;;5113207;28;20181;-58
2022/05/01 09:05:44;;;;;;;9.02;7.75;;;14.00;99.90;;;;;;5112995;28;20669;-58
2022/05/01 09:08:10;;;;;;;10.35;7.97;;;14.00;99.90;;;;;;5113374;28;20170;-58
2022/05/01 09:10:37;;;;;;;8.85;7.28;;;13.90;99.90;;;;;;5113185;28;20662;-58
2022/05/01 09:13:04;;;;;;;9.27;6.53;;;13.90;99.90;;;;;;5114368;28;20233;-58
2022/05/01 09:15:32;;;;;;;9.10;6.57;;;13.80;99.90;;;;;;5095977;28;20177;-58
2022/05/01 09:18:09;;;;;;;9.90;7.90;;;14.00;99.90;;;;;;5114582;28;20171;-58
2022/05/01 09:20:39;;;;;;;8.43;7.07;;;14.40;99.90;;;;;;5113149;28;20653;-58
2022/05/01 09:23:06;;;;;;;7.30;6.22;;;14.70;99.90;;;;;;5113243;28;20230;-58
2022/05/01 09:25:33;;;;;;;5.47;4.38;;;14.30;99.90;;;;;;5112561;28;20653;-58
2022/05/01 09:28:01;;;;;;;4.68;4.25;;;14.60;99.90;;;;;;5113168;28;20526;-58
2022/05/01 09:30:32;;;;;;;5.10;4.15;;;14.70;99.00;;;;;;5113958;28;20212;-58
2022/05/01 09:32:59;;;;;;;6.93;5.18;;;15.00;99.90;;;;;;5114285;28;20200;-58
2022/05/01 09:35:32;;;;;;;9.10;6.85;;;14.70;99.20;;;;;;5113868;28;20631;-58
2022/05/01 09:38:23;;;;;;;8.77;7.25;;;14.50;99.90;;;;;;5113945;28;20657;-58
2022/05/01 09:40:55;;;;;;;10.00;7.82;;;14.30;99.90;;;;;;5114435;28;20200;-58
2022/05/01 09:43:44;;;;;;;10.50;8.00;;;14.20;99.90;;;;;;5112854;28;20234;-58
2022/05/01 09:46:23;;;;;;;10.02;8.13;;;14.00;99.90;;;;;;5113924;28;20653;-58
2022/05/01 09:49:01;;;;;;;8.70;7.80;;;14.00;99.90;;;;;;5097706;28;20194;-58
2022/05/01 09:51:28;;;;;;;10.65;7.78;;;13.90;99.90;;;;;;5113761;28;20205;-58
2022/05/01 09:53:54;;;;;;;10.10;8.27;;;13.80;99.90;;;;;;5113863;28;20173;-58
2022/05/01 09:56:21;;;;;;;9.18;7.75;;;13.70;99.90;;;;;;5113906;28;20169;-58
2022/05/01 09:58:56;;;;;;;9.23;7.70;;;13.60;99.90;;;;;;5112461;28;20259;-59
2022/05/01 10:01:22;;;;;;;8.60;7.20;;;13.60;99.90;;;;;;5113755;28;20181;-58
2022/05/01 10:03:52;;;;;;;8.23;7.43;;;13.60;99.90;;;;;;5113583;28;20698;-58
2022/05/01 10:06:19;;;;;;;10.35;7.25;;;13.60;99.90;;;;;;5113580;28;20646;-58
2022/05/01 10:08:46;;;;;;;7.75;6.63;;;13.50;99.90;;;;;;5113542;28;20165;-58
2022/05/01 10:11:18;;;;;;;8.45;6.93;;;13.50;99.90;;;;;;5113425;28;20283;-58
2022/05/01 10:13:46;;;;;;;7.13;6.10;;;13.70;99.90;;;;;;5113003;28;20184;-58
2022/05/01 10:16:15;;;;;;;6.70;5.95;;;13.80;99.90;;;;;;5113792;28;20212;-58
2022/05/01 10:18:42;;;;;;;9.07;6.47;;;14.00;99.90;;;;;;5113557;28;20165;-58
2022/05/01 10:21:08;;;;;;;9.32;7.80;;;14.30;99.90;;;;;;5112227;28;20226;-58
2022/05/01 10:23:35;;;;;;;8.95;7.25;;;14.70;99.90;;;;;;5113373;28;20177;-58
2022/05/01 10:26:28;;;;;;;9.80;7.75;;;14.90;99.90;;;;;;5113633;28;20177;-58
2022/05/01 10:29:31;;;;;;;9.05;7.38;;;15.10;99.90;;;;;;5113649;28;20170;-58
2022/05/01 10:32:30;;;;;;;7.85;6.72;;;15.30;98.70;;;;;;5113175;28;20646;-58
2022/05/01 10:35:08;;;;;;;7.32;6.28;;;14.80;99.90;;;;;;5113457;28;20173;-58
2022/05/01 10:38:05;;;;;;;8.30;6.07;;;15.00;99.10;;;;;;5113565;28;20177;-58
2022/05/01 10:40:50;;;;;;;7.45;6.13;;;15.20;97.20;;;;;;5117135;28;20519;-58
2022/05/01 10:43:31;;;;;;;6.35;5.07;;;15.80;98.00;;;;;;5117625;28;20173;-58
2022/05/01 10:46:01;;;;;;;6.18;5.03;;;16.10;97.30;;;;;;5117403;28;20638;-58
2022/05/01 10:48:32;;;;;;;6.40;5.63;;;16.50;97.30;;;;;;5116094;28;20522;-58
2022/05/01 10:51:38;;;;;;;7.25;5.72;;;16.70;96.80;;;;;;5117346;28;20205;-58
2022/05/01 10:54:10;;;;;;;5.40;4.30;;;16.30;95.40;;;;;;5117119;28;20181;-58
2022/05/01 10:56:37;;;;;;;4.97;4.47;;;16.20;95.90;;;;;;5117007;28;20512;-58
2022/05/01 10:59:30;;;;;;;4.45;3.78;;;16.10;96.40;;;;;;5116959;28;20169;-58
2022/05/01 11:02:24;;;;;;;5.43;4.15;;;16.00;95.40;;;;;;5117142;28;20174;-58
2022/05/01 11:04:52;;;;;;;4.25;3.85;;;16.00;95.50;;;;;;5115750;28;20357;-58
2022/05/01 11:07:18;;;;;;;5.75;5.13;;;16.20;95.70;;;;;;5116880;28;20314;-58
2022/05/01 11:09:49;;;;;;;6.75;4.80;;;16.20;96.00;;;;;;5115957;28;20303;-58
2022/05/01 11:12:16;;;;;;;5.05;4.35;;;16.30;95.40;;;;;;5117195;28;20208;-58
2022/05/01 11:15:03;;;;;;;5.32;4.75;;;16.40;96.20;;;;;;5116658;28;20170;-58
2022/05/01 11:17:44;;;;;;;5.57;4.75;;;16.10;92.80;;;;;;5115590;28;20173;-58
2022/05/01 11:20:19;;;;;;;4.75;4.05;;;16.10;94.50;;;;;;5116642;28;20274;-58
2022/05/01 11:22:45;;;;;;;5.30;4.05;;;16.10;93.00;;;;;;5116788;28;20164;-58
2022/05/01 11:25:33;;;;;;;4.60;4.07;;;16.10;94.90;;;;;;5116657;28;20220;-58
2022/05/01 11:27:59;;;;;;;4.72;3.90;;;15.90;93.70;;;;;;5116504;28;20422;-58
2022/05/01 11:30:28;;;;;;;4.65;3.67;;;15.80;92.60;;;;;;5114928;28;20205;-58
2022/05/01 11:33:03;;;;;;;4.53;3.60;;;15.90;94.40;;;;;;5116465;28;20184;-58
2022/05/01 11:35:56;;;;;;;4.47;3.67;;;15.80;94.10;;;;;;5116488;28;20189;-60
2022/05/01 11:38:53;;;;;;;3.92;3.53;;;15.70;92.60;;;;;;5115813;28;20230;-60
2022/05/01 11:41:42;;;;;;;5.25;3.95;;;15.80;92.60;;;;;;5106498;28;20185;-60
2022/05/01 11:44:23;;;;;;;4.63;3.80;;;16.20;94.10;;;;;;5115237;28;20568;-59
2022/05/01 11:46:48;;;;;;;3.75;3.40;;;16.30;92.40;;;;;;5116208;28;20173;-60
2022/05/01 11:49:14;;;;;;;4.50;3.55;;;16.30;91.80;;;;;;5115871;28;20234;-60
2022/05/01 11:51:40;;;;;;;4.15;3.33;;;16.20;92.80;;;;;;5114985;28;20220;-60
2022/05/01 11:54:08;;;;;;;3.80;3.03;;;16.30;93.30;;;;;;5116093;28;20180;-60
2022/05/01 12:04:47;;;;;;;3.50;3.08;;;16.50;90.40;;;;;;5115620;28;20200;-60
2022/05/01 12:07:15;;;;;;;3.65;3.10;;;16.00;88.70;;;;;;5115869;28;20177;-60
2022/05/01 12:09:44;;;;;;;4.35;3.35;;;15.60;91.60;;;;;;5115763;28;20650;-60
2022/05/01 12:12:12;;;;;;;3.90;2.95;;;15.60;89.40;;;;;;5115571;28;20276;-60
2022/05/01 12:14:39;;;;;;;3.42;3.00;;;15.50;90.30;;;;;;5115891;28;20694;-60
2022/05/01 12:17:09;;;;;;;3.33;2.60;;;15.70;91.90;;;;;;5115707;28;20549;-60
2022/05/01 12:19:47;;;;;;;3.72;3.08;;;15.70;91.30;;;;;;5115867;28;20547;-60
2022/05/01 12:22:17;;;;;;;3.33;2.72;;;15.60;91.00;;;;;;5114382;28;20172;-60
2022/05/01 12:24:44;;;;;;;3.30;2.80;;;15.70;91.90;;;;;;5114347;28;20185;-60
2022/05/01 12:27:11;;;;;;;5.07;3.28;;;15.90;92.30;;;;;;5114506;28;20605;-60
2022/05/01 12:29:41;;;;;;;3.13;2.83;;;16.00;90.10;;;;;;5115509;28;20170;-60
2022/05/01 12:32:06;;;;;;;3.55;2.72;;;16.30;90.40;;;;;;5097520;28;20181;-60
2022/05/01 12:34:38;;;;;;;4.50;3.08;;;16.40;90.50;;;;;;5115058;28;20683;-60
2022/05/01 12:37:16;;;;;;;4.90;3.53;;;16.80;89.30;;;;;;5115063;28;20181;-60
2022/05/01 12:40:02;;;;;;;3.38;2.83;;;16.60;87.00;;;;;;5115177;28;20176;-60
2022/05/01 12:45:23;;;;;;;5.10;3.17;;;16.40;90.70;;;;;;5115248;28;20185;-60
2022/05/01 12:47:53;;;;;;;5.25;3.33;;;16.30;90.70;;;;;;5113994;28;20169;-60
2022/05/01 12:50:18;;;;;;;5.93;4.10;;;16.50;90.00;;;;;;5113545;28;20201;-60
2022/05/01 12:52:46;;;;;;;5.50;3.70;;;16.40;85.20;;;;;;5114923;28;20695;-59
2022/05/01 12:55:18;;;;;;;4.95;3.88;;;16.10;88.20;;;;;;5114832;28;20176;-60
2022/05/01 12:58:00;;;;;;;4.80;3.25;;;16.20;89.80;;;;;;5113563;28;20169;-60
2022/05/01 13:00:39;;;;;;;4.43;3.72;;;16.10;90.10;;;;;;5112986;28;20181;-60
2022/05/01 13:03:30;;;;;;;5.10;3.75;;;16.10;91.20;;;;;;5114797;28;20165;-60
2022/05/01 13:06:13;;;;;;;4.88;3.33;;;16.10;89.00;;;;;;5114492;28;20268;-60
2022/05/01 13:09:09;;;;;;;4.32;3.90;;;16.10;91.30;;;;;;5114775;28;20212;-60
2022/05/01 13:11:36;;;;;;;4.65;3.80;;;16.20;90.10;;;;;;5105466;28;20603;-60
2022/05/01 13:14:30;;;;;;;5.50;3.65;;;16.40;91.50;;;;;;5113334;28;20507;-60
2022/05/01 13:17:08;;;;;;;5.05;4.07;;;16.60;88.80;;;;;;5114566;28;20169;-60
2022/05/01 13:19:34;;;;;;;5.22;3.97;;;16.80;90.40;;;;;;5114385;28;20539;-60
2022/05/01 13:21:59;;;;;;;4.55;3.63;;;17.20;91.20;;;;;;5114395;28;20219;-60
2022/05/01 13:24:30;;;;;;;5.45;3.83;;;17.40;90.30;;;;;;5113100;28;20173;-60
2022/05/01 13:27:01;;;;;;;4.28;3.58;;;17.40;91.40;;;;;;5114191;28;20176;-60